sensor_id;sensor_type;location;lat;lon;timestamp;pressure;altitude;pressure_sealevel;temperature;humidity
69318;BME280;56457;52.190;4.440;2023-02-28T00:00:54;103313.50;;;2.93;100.00
69318;BME280;56457;52.190;4.440;2023-02-28T00:01:54;103322.16;;;2.93;100.00
69318;BME280;56457;52.190;4.440;2023-02-28T00:02:54;103318.69;;;2.93;100.00
69318;BME280;56457;52.190;4.440;2023-02-28T00:03:55;103317.16;;;2.96;100.00
69318;BME280;56457;52.190;4.440;2023-02-28T00:04:55;103312.88;;;2.97;100.00
69318;BME280;56457;52.190;4.440;2023-02-28T00:06:02;103319.16;;;3.01;100.00
69318;BME280;56457;52.190;4.440;2023-02-28T00:07:02;103316.66;;;3.02;100.00
69318;BME280;56457;52.190;4.440;2023-02-28T00:08:03;103314.16;;;3.04;100.00
69318;BME280;56457;52.190;4.440;2023-02-28T00:09:03;103318.00;;;3.10;100.00
69318;BME280;56457;52.190;4.440;2023-02-28T00:10:04;103316.44;;;3.12;100.00
69318;BME280;56457;52.190;4.440;2023-02-28T00:11:11;103321.00;;;3.16;100.00
69318;BME280;56457;52.190;4.440;2023-02-28T00:12:11;103316.72;;;3.17;100.00
69318;BME280;56457;52.190;4.440;2023-02-28T00:13:12;103318.50;;;3.18;100.00
69318;BME280;56457;52.190;4.440;2023-02-28T00:14:13;103317.00;;;3.21;100.00
69318;BME280;56457;52.190;4.440;2023-02-28T00:15:13;103324.88;;;3.23;100.00
69318;BME280;56457;52.190;4.440;2023-02-28T00:16:15;103328.38;;;3.23;100.00
69318;BME280;56457;52.190;4.440;2023-02-28T00:17:16;103322.19;;;3.21;100.00
69318;BME280;56457;52.190;4.440;2023-02-28T00:18:20;103325.94;;;3.27;100.00
69318;BME280;56457;52.190;4.440;2023-02-28T00:19:21;103328.56;;;3.27;100.00
69318;BME280;56457;52.190;4.440;2023-02-28T00:20:21;103326.16;;;3.30;100.00
69318;BME280;56457;52.190;4.440;2023-02-28T00:21:22;103326.41;;;3.34;100.00
69318;BME280;56457;52.190;4.440;2023-02-28T00:22:22;103330.91;;;3.37;100.00
69318;BME280;56457;52.190;4.440;2023-02-28T00:23:22;103325.72;;;3.37;100.00
69318;BME280;56457;52.190;4.440;2023-02-28T00:24:22;103323.75;;;3.33;100.00
69318;BME280;56457;52.190;4.440;2023-02-28T00:25:23;103322.84;;;3.32;100.00
69318;BME280;56457;52.190;4.440;2023-02-28T00:26:24;103326.16;;;3.30;100.00
69318;BME280;56457;52.190;4.440;2023-02-28T00:27:24;103323.56;;;3.30;100.00
69318;BME280;56457;52.190;4.440;2023-02-28T00:28:24;103326.25;;;3.31;100.00
69318;BME280;56457;52.190;4.440;2023-02-28T00:29:25;103325.53;;;3.34;100.00
69318;BME280;56457;52.190;4.440;2023-02-28T00:30:25;103324.31;;;3.42;100.00
69318;BME280;56457;52.190;4.440;2023-02-28T00:31:25;103323.22;;;3.38;100.00
69318;BME280;56457;52.190;4.440;2023-02-28T00:32:26;103319.00;;;3.40;100.00
69318;BME280;56457;52.190;4.440;2023-02-28T00:33:27;103315.53;;;3.40;100.00
69318;BME280;56457;52.190;4.440;2023-02-28T00:34:27;103318.03;;;3.38;100.00
69318;BME280;56457;52.190;4.440;2023-02-28T00:35:27;103324.31;;;3.42;100.00
69318;BME280;56457;52.190;4.440;2023-02-28T00:36:28;103321.59;;;3.40;100.00
69318;BME280;56457;52.190;4.440;2023-02-28T00:37:28;103325.91;;;3.40;100.00
69318;BME280;56457;52.190;4.440;2023-02-28T00:38:28;103312.31;;;3.44;100.00
69318;BME280;56457;52.190;4.440;2023-02-28T00:39:28;103318.41;;;3.44;100.00
69318;BME280;56457;52.190;4.440;2023-02-28T00:40:29;103328.69;;;3.43;100.00
69318;BME280;56457;52.190;4.440;2023-02-28T00:41:29;103322.50;;;3.41;100.00
69318;BME280;56457;52.190;4.440;2023-02-28T00:42:30;103327.16;;;3.46;100.00
69318;BME280;56457;52.190;4.440;2023-02-28T00:43:34;103330.56;;;3.45;100.00
69318;BME280;56457;52.190;4.440;2023-02-28T00:44:34;103324.50;;;3.45;100.00
69318;BME280;56457;52.190;4.440;2023-02-28T00:45:34;103326.28;;;3.46;100.00
69318;BME280;56457;52.190;4.440;2023-02-28T00:46:35;103328.78;;;3.44;100.00
69318;BME280;56457;52.190;4.440;2023-02-28T00:47:35;103326.28;;;3.46;100.00
69318;BME280;56457;52.190;4.440;2023-02-28T00:48:36;103325.59;;;3.48;100.00
69318;BME280;56457;52.190;4.440;2023-02-28T00:49:36;103316.78;;;3.46;100.00
69318;BME280;56457;52.190;4.440;2023-02-28T00:50:36;103312.50;;;3.47;100.00
69318;BME280;56457;52.190;4.440;2023-02-28T00:51:37;103313.38;;;3.47;100.00
69318;BME280;56457;52.190;4.440;2023-02-28T00:52:37;103315.88;;;3.46;100.00
69318;BME280;56457;52.190;4.440;2023-02-28T00:53:37;103314.31;;;3.48;100.00
69318;BME280;56457;52.190;4.440;2023-02-28T00:54:38;103314.31;;;3.48;100.00
69318;BME280;56457;52.190;4.440;2023-02-28T00:55:38;103316.91;;;3.48;100.00
69318;BME280;56457;52.190;4.440;2023-02-28T00:56:38;103312.50;;;3.47;100.00
69318;BME280;56457;52.190;4.440;2023-02-28T00:57:39;103309.00;;;3.46;100.00
69318;BME280;56457;52.190;4.440;2023-02-28T00:58:39;103308.31;;;3.49;100.00
69318;BME280;56457;52.190;4.440;2023-02-28T00:59:40;103313.59;;;3.50;100.00
69318;BME280;56457;52.190;4.440;2023-02-28T01:00:40;103311.97;;;3.53;100.00
69318;BME280;56457;52.190;4.440;2023-02-28T01:01:41;103313.50;;;3.49;100.00
69318;BME280;56457;52.190;4.440;2023-02-28T01:02:41;103325.59;;;3.48;100.00
69318;BME280;56457;52.190;4.440;2023-02-28T01:03:41;103314.47;;;3.51;100.00
69318;BME280;56457;52.190;4.440;2023-02-28T01:04:42;103312.97;;;3.55;100.00
69318;BME280;56457;52.190;4.440;2023-02-28T01:05:42;103314.56;;;3.53;100.00
69318;BME280;56457;52.190;4.440;2023-02-28T01:06:43;103311.88;;;3.51;100.00
69318;BME280;56457;52.190;4.440;2023-02-28T01:07:43;103319.66;;;3.51;100.00
69318;BME280;56457;52.190;4.440;2023-02-28T01:08:43;103318.84;;;3.52;100.00
69318;BME280;56457;52.190;4.440;2023-02-28T01:09:44;103313.94;;;3.57;100.00
69318;BME280;56457;52.190;4.440;2023-02-28T01:10:44;103324.25;;;3.55;100.00
69318;BME280;56457;52.190;4.440;2023-02-28T01:11:44;103325.06;;;3.54;100.00
69318;BME280;56457;52.190;4.440;2023-02-28T01:12:44;103317.34;;;3.56;100.00
69318;BME280;56457;52.190;4.440;2023-02-28T01:13:45;103326.84;;;3.55;100.00
69318;BME280;56457;52.190;4.440;2023-02-28T01:14:46;103326.03;;;3.56;100.00
69318;BME280;56457;52.190;4.440;2023-02-28T01:15:49;103326.13;;;3.58;100.00
69318;BME280;56457;52.190;4.440;2023-02-28T01:16:50;103328.00;;;3.60;100.00
69318;BME280;56457;52.190;4.440;2023-02-28T01:17:51;103317.59;;;3.60;100.00
69318;BME280;56457;52.190;4.440;2023-02-28T01:18:52;103319.22;;;3.58;100.00
69318;BME280;56457;52.190;4.440;2023-02-28T01:19:53;103327.53;;;3.53;100.00
69318;BME280;56457;52.190;4.440;2023-02-28T01:20:53;103319.88;;;3.54;100.00
69318;BME280;56457;52.190;4.440;2023-02-28T01:21:54;103319.31;;;3.60;100.00
69318;BME280;56457;52.190;4.440;2023-02-28T01:22:54;103321.22;;;3.62;100.00
69318;BME280;56457;52.190;4.440;2023-02-28T01:23:55;103324.09;;;3.67;100.00
69318;BME280;56457;52.190;4.440;2023-02-28T01:24:56;103316.31;;;3.67;100.00
69318;BME280;56457;52.190;4.440;2023-02-28T01:25:56;103314.69;;;3.69;100.00
69318;BME280;56457;52.190;4.440;2023-02-28T01:26:56;103324.34;;;3.71;100.00
69318;BME280;56457;52.190;4.440;2023-02-28T01:27:57;103320.84;;;3.71;100.00
69318;BME280;56457;52.190;4.440;2023-02-28T01:28:57;103315.75;;;3.72;100.00
69318;BME280;56457;52.190;4.440;2023-02-28T01:29:57;103313.28;;;3.74;100.00
69318;BME280;56457;52.190;4.440;2023-02-28T01:30:58;103308.97;;;3.74;100.00
69318;BME280;56457;52.190;4.440;2023-02-28T01:31:58;103309.66;;;3.72;100.00
69318;BME280;56457;52.190;4.440;2023-02-28T01:32:59;103312.53;;;3.76;100.00
69318;BME280;56457;52.190;4.440;2023-02-28T01:33:59;103307.00;;;3.85;100.00
69318;BME280;56457;52.190;4.440;2023-02-28T01:35:00;103310.31;;;3.83;100.00
69318;BME280;56457;52.190;4.440;2023-02-28T01:36:03;103310.03;;;3.78;100.00
69318;BME280;56457;52.190;4.440;2023-02-28T01:37:04;103313.44;;;3.77;100.00
69318;BME280;56457;52.190;4.440;2023-02-28T01:38:05;103305.56;;;3.75;100.00
69318;BME280;56457;52.190;4.440;2023-02-28T01:39:05;103318.00;;;3.81;100.00
69318;BME280;56457;52.190;4.440;2023-02-28T01:40:05;103316.69;;;3.88;100.00
69318;BME280;56457;52.190;4.440;2023-02-28T01:41:06;103311.66;;;3.91;100.00
69318;BME280;56457;52.190;4.440;2023-02-28T01:42:08;103317.84;;;3.93;100.00
69318;BME280;56457;52.190;4.440;2023-02-28T01:43:30;103314.97;;;3.88;100.00
69318;BME280;56457;52.190;4.440;2023-02-28T01:45:48;103311.47;;;3.88;100.00
69318;BME280;56457;52.190;4.440;2023-02-28T01:46:48;103311.84;;;3.94;100.00
69318;BME280;56457;52.190;4.440;2023-02-28T01:47:50;103302.34;;;3.94;100.00
69318;BME280;56457;52.190;4.440;2023-02-28T01:49:11;103311.84;;;3.94;100.00
69318;BME280;56457;52.190;4.440;2023-02-28T01:50:18;103306.44;;;3.91;100.00
69318;BME280;56457;52.190;4.440;2023-02-28T01:51:24;103314.25;;;3.91;100.00
69318;BME280;56457;52.190;4.440;2023-02-28T01:52:26;103313.53;;;3.93;100.00
69318;BME280;56457;52.190;4.440;2023-02-28T01:53:34;103305.75;;;3.93;100.00
69318;BME280;56457;52.190;4.440;2023-02-28T01:54:37;103301.09;;;3.88;100.00
69318;BME280;56457;52.190;4.440;2023-02-28T01:55:37;103295.09;;;3.89;100.00
69318;BME280;56457;52.190;4.440;2023-02-28T01:56:40;103301.25;;;3.91;100.00
69318;BME280;56457;52.190;4.440;2023-02-28T01:57:46;103299.59;;;3.91;100.00
69318;BME280;56457;52.190;4.440;2023-02-28T01:58:49;103297.22;;;3.96;100.00
69318;BME280;56457;52.190;4.440;2023-02-28T01:59:57;103296.34;;;3.95;100.00
69318;BME280;56457;52.190;4.440;2023-02-28T02:00:59;103300.47;;;3.92;100.00
69318;BME280;56457;52.190;4.440;2023-02-28T02:01:59;103298.66;;;3.91;100.00
69318;BME280;56457;52.190;4.440;2023-02-28T02:03:03;103295.38;;;3.93;100.00
69318;BME280;56457;52.190;4.440;2023-02-28T02:04:05;103293.81;;;3.97;100.00
69318;BME280;56457;52.190;4.440;2023-02-28T02:05:07;103294.00;;;4.00;100.00
69318;BME280;56457;52.190;4.440;2023-02-28T02:06:08;103301.81;;;4.00;100.00
69318;BME280;56457;52.190;4.440;2023-02-28T02:07:08;103307.00;;;4.00;100.00
69318;BME280;56457;52.190;4.440;2023-02-28T02:08:10;103300.19;;;4.02;100.00
69318;BME280;56457;52.190;4.440;2023-02-28T02:09:11;103302.78;;;4.02;100.00
69318;BME280;56457;52.190;4.440;2023-02-28T02:11:16;103296.06;;;4.05;100.00
69318;BME280;56457;52.190;4.440;2023-02-28T02:13:35;103289.78;;;4.02;100.00
69318;BME280;56457;52.190;4.440;2023-02-28T02:14:43;103292.31;;;4.00;100.00
69318;BME280;56457;52.190;4.440;2023-02-28T02:17:10;103292.41;;;4.02;100.00
69318;BME280;56457;52.190;4.440;2023-02-28T02:18:21;103288.91;;;4.01;100.00
69318;BME280;56457;52.190;4.440;2023-02-28T02:29:45;103280.56;;;4.07;100.00
69318;BME280;56457;52.190;4.440;2023-02-28T02:35:24;103282.44;;;4.10;100.00
69318;BME280;56457;52.190;4.440;2023-02-28T02:42:00;103277.59;;;4.16;100.00
69318;BME280;56457;52.190;4.440;2023-02-28T02:43:13;103271.41;;;4.14;100.00
69318;BME280;56457;52.190;4.440;2023-02-28T02:44:21;103276.63;;;4.14;100.00
69318;BME280;56457;52.190;4.440;2023-02-28T02:45:25;103266.84;;;4.10;100.00
69318;BME280;56457;52.190;4.440;2023-02-28T02:46:34;103275.66;;;4.12;100.00
69318;BME280;56457;52.190;4.440;2023-02-28T02:47:36;103276.09;;;4.04;100.00
69318;BME280;56457;52.190;4.440;2023-02-28T02:48:38;103272.78;;;4.07;100.00
69318;BME280;56457;52.190;4.440;2023-02-28T02:49:42;103278.88;;;4.08;100.00
69318;BME280;56457;52.190;4.440;2023-02-28T02:50:44;103283.16;;;4.07;100.00
69318;BME280;56457;52.190;4.440;2023-02-28T02:51:45;103281.66;;;4.11;100.00
69318;BME280;56457;52.190;4.440;2023-02-28T02:52:48;103280.91;;;4.13;100.00
69318;BME280;56457;52.190;4.440;2023-02-28T02:53:52;103277.34;;;4.11;100.00
69318;BME280;56457;52.190;4.440;2023-02-28T02:54:55;103279.06;;;4.11;100.00
69318;BME280;56457;52.190;4.440;2023-02-28T02:55:56;103279.75;;;4.08;100.00
69318;BME280;56457;52.190;4.440;2023-02-28T02:57:08;103280.66;;;4.09;100.00
69318;BME280;56457;52.190;4.440;2023-02-28T02:58:10;103281.53;;;4.09;100.00
69318;BME280;56457;52.190;4.440;2023-02-28T02:59:14;103281.72;;;4.12;100.00
69318;BME280;56457;52.190;4.440;2023-02-28T03:00:23;103275.81;;;4.15;100.00
69318;BME280;56457;52.190;4.440;2023-02-28T03:01:25;103272.31;;;4.14;100.00
69318;BME280;56457;52.190;4.440;2023-02-28T03:02:29;103275.66;;;4.12;100.00
69318;BME280;56457;52.190;4.440;2023-02-28T03:03:34;103277.50;;;4.14;100.00
69318;BME280;56457;52.190;4.440;2023-02-28T03:04:36;103278.50;;;4.16;100.00
69318;BME280;56457;52.190;4.440;2023-02-28T03:06:43;103273.13;;;4.13;100.00
69318;BME280;56457;52.190;4.440;2023-02-28T03:07:43;103275.81;;;4.15;100.00
69318;BME280;56457;52.190;4.440;2023-02-28T03:08:43;103271.78;;;4.20;100.00
69318;BME280;56457;52.190;4.440;2023-02-28T03:09:53;103277.84;;;4.20;100.00
69318;BME280;56457;52.190;4.440;2023-02-28T03:11:00;103273.47;;;4.19;100.00
69318;BME280;56457;52.190;4.440;2023-02-28T03:12:00;103269.97;;;4.19;100.00
69318;BME280;56457;52.190;4.440;2023-02-28T03:15:28;103274.03;;;4.14;100.00
69318;BME280;56457;52.190;4.440;2023-02-28T03:20:53;103268.78;;;4.28;100.00
69318;BME280;56457;52.190;4.440;2023-02-28T03:25:27;103267.00;;;4.27;100.00
69318;BME280;56457;52.190;4.440;2023-02-28T03:26:30;103264.59;;;4.30;100.00
69318;BME280;56457;52.190;4.440;2023-02-28T03:27:54;103270.41;;;4.26;100.00
69318;BME280;56457;52.190;4.440;2023-02-28T03:29:03;103264.31;;;4.26;100.00
69318;BME280;56457;52.190;4.440;2023-02-28T03:30:06;103277.41;;;4.27;100.00
69318;BME280;56457;52.190;4.440;2023-02-28T03:33:15;103270.94;;;4.36;100.00
69318;BME280;56457;52.190;4.440;2023-02-28T03:34:22;103275.16;;;4.33;100.00
69318;BME280;56457;52.190;4.440;2023-02-28T03:35:29;103266.38;;;4.31;100.00
69318;BME280;56457;52.190;4.440;2023-02-28T03:36:32;103273.34;;;4.32;100.00
69318;BME280;56457;52.190;4.440;2023-02-28T03:37:42;103268.91;;;4.30;100.00
69318;BME280;56457;52.190;4.440;2023-02-28T03:38:45;103262.88;;;4.31;100.00
69318;BME280;56457;52.190;4.440;2023-02-28T03:39:53;103268.91;;;4.30;100.00
69318;BME280;56457;52.190;4.440;2023-02-28T03:41:01;103266.38;;;4.31;100.00
69318;BME280;56457;52.190;4.440;2023-02-28T03:42:05;103267.34;;;4.33;100.00
69318;BME280;56457;52.190;4.440;2023-02-28T03:43:11;103270.13;;;4.37;100.00
69318;BME280;56457;52.190;4.440;2023-02-28T03:44:14;103272.53;;;4.33;100.00
69318;BME280;56457;52.190;4.440;2023-02-28T03:45:16;103270.69;;;4.31;100.00
69318;BME280;56457;52.190;4.440;2023-02-28T03:46:18;103270.41;;;4.26;100.00
69318;BME280;56457;52.190;4.440;2023-02-28T03:47:25;103270.34;;;4.25;100.00
69318;BME280;56457;52.190;4.440;2023-02-28T03:48:30;103268.72;;;4.27;100.00
69318;BME280;56457;52.190;4.440;2023-02-28T03:49:32;103263.78;;;4.31;100.00
69318;BME280;56457;52.190;4.440;2023-02-28T03:50:35;103273.28;;;4.31;100.00
69318;BME280;56457;52.190;4.440;2023-02-28T03:51:36;103262.97;;;4.32;100.00
69318;BME280;56457;52.190;4.440;2023-02-28T03:52:42;103268.16;;;4.32;100.00
69318;BME280;56457;52.190;4.440;2023-02-28T03:53:46;103273.56;;;4.36;100.00
69318;BME280;56457;52.190;4.440;2023-02-28T03:54:50;103266.44;;;4.33;100.00
69318;BME280;56457;52.190;4.440;2023-02-28T03:55:54;103261.34;;;4.35;100.00
69318;BME280;56457;52.190;4.440;2023-02-28T03:57:02;103266.53;;;4.35;100.00
69318;BME280;56457;52.190;4.440;2023-02-28T03:58:06;103268.97;;;4.31;100.00
69318;BME280;56457;52.190;4.440;2023-02-28T04:00:12;103265.50;;;4.31;100.00
69318;BME280;56457;52.190;4.440;2023-02-28T04:01:24;103267.19;;;4.30;100.00
69318;BME280;56457;52.190;4.440;2023-02-28T04:02:26;103268.63;;;4.25;100.00
69318;BME280;56457;52.190;4.440;2023-02-28T04:03:27;103275.44;;;4.23;100.00
69318;BME280;56457;52.190;4.440;2023-02-28T04:04:28;103265.75;;;4.21;100.00
69318;BME280;56457;52.190;4.440;2023-02-28T04:05:28;103272.75;;;4.22;100.00
69318;BME280;56457;52.190;4.440;2023-02-28T04:06:30;103274.63;;;4.24;100.00
69318;BME280;56457;52.190;4.440;2023-02-28T04:07:31;103273.97;;;4.28;100.00
69318;BME280;56457;52.190;4.440;2023-02-28T04:08:31;103279.19;;;4.28;100.00
69318;BME280;56457;52.190;4.440;2023-02-28T04:09:32;103280.81;;;4.26;100.00
69318;BME280;56457;52.190;4.440;2023-02-28T04:10:32;103285.38;;;4.30;100.00
69318;BME280;56457;52.190;4.440;2023-02-28T04:11:34;103287.25;;;4.33;100.00
69318;BME280;56457;52.190;4.440;2023-02-28T04:12:35;103285.53;;;4.33;100.00
69318;BME280;56457;52.190;4.440;2023-02-28T04:13:35;103279.91;;;4.26;100.00
69318;BME280;56457;52.190;4.440;2023-02-28T04:14:35;103282.59;;;4.27;100.00
69318;BME280;56457;52.190;4.440;2023-02-28T04:15:36;103279.19;;;4.28;100.00
69318;BME280;56457;52.190;4.440;2023-02-28T04:16:37;103279.38;;;4.31;100.00
69318;BME280;56457;52.190;4.440;2023-02-28T04:17:38;103280.19;;;4.30;100.00
69318;BME280;56457;52.190;4.440;2023-02-28T04:18:38;103284.66;;;4.33;100.00
69318;BME280;56457;52.190;4.440;2023-02-28T04:19:39;103278.75;;;4.36;100.00
69318;BME280;56457;52.190;4.440;2023-02-28T04:20:39;103282.25;;;4.36;100.00
69318;BME280;56457;52.190;4.440;2023-02-28T04:21:41;103281.59;;;4.40;100.00
69318;BME280;56457;52.190;4.440;2023-02-28T04:22:41;103278.91;;;4.39;100.00
69318;BME280;56457;52.190;4.440;2023-02-28T04:23:42;103268.59;;;4.40;100.00
69318;BME280;56457;52.190;4.440;2023-02-28T04:24:42;103278.09;;;4.40;100.00
69318;BME280;56457;52.190;4.440;2023-02-28T04:25:42;103279.78;;;4.39;100.00
69318;BME280;56457;52.190;4.440;2023-02-28T04:26:45;103273.78;;;4.40;100.00
69318;BME280;56457;52.190;4.440;2023-02-28T04:27:45;103271.28;;;4.42;100.00
69318;BME280;56457;52.190;4.440;2023-02-28T04:28:45;103266.81;;;4.39;100.00
69318;BME280;56457;52.190;4.440;2023-02-28T04:29:46;103274.69;;;4.41;100.00
69318;BME280;56457;52.190;4.440;2023-02-28T04:30:53;103270.28;;;4.40;100.00
69318;BME280;56457;52.190;4.440;2023-02-28T04:31:54;103268.78;;;4.43;100.00
69318;BME280;56457;52.190;4.440;2023-02-28T04:32:58;103268.03;;;4.46;100.00
69318;BME280;56457;52.190;4.440;2023-02-28T04:33:58;103256.94;;;4.48;100.00
69318;BME280;56457;52.190;4.440;2023-02-28T04:34:59;103265.69;;;4.50;100.00
69318;BME280;56457;52.190;4.440;2023-02-28T04:36:00;103264.81;;;4.50;100.00
69318;BME280;56457;52.190;4.440;2023-02-28T04:37:00;103257.16;;;4.53;100.00
69318;BME280;56457;52.190;4.440;2023-02-28T04:38:00;103261.41;;;4.51;100.00
69318;BME280;56457;52.190;4.440;2023-02-28T04:39:01;103266.44;;;4.48;100.00
69318;BME280;56457;52.190;4.440;2023-02-28T04:40:01;103268.16;;;4.47;100.00
69318;BME280;56457;52.190;4.440;2023-02-28T04:41:03;103267.41;;;4.50;100.00
69318;BME280;56457;52.190;4.440;2023-02-28T04:42:04;103264.00;;;4.51;100.00
69318;BME280;56457;52.190;4.440;2023-02-28T04:43:04;103263.91;;;4.49;100.00
69318;BME280;56457;52.190;4.440;2023-02-28T04:44:04;103262.84;;;4.46;100.00
69318;BME280;56457;52.190;4.440;2023-02-28T04:45:05;103262.94;;;4.47;100.00
69318;BME280;56457;52.190;4.440;2023-02-28T04:46:05;103259.59;;;4.50;100.00
69318;BME280;56457;52.190;4.440;2023-02-28T04:47:06;103267.22;;;4.47;100.00
69318;BME280;56457;52.190;4.440;2023-02-28T04:48:06;103270.75;;;4.47;100.00
69318;BME280;56457;52.190;4.440;2023-02-28T04:49:06;103261.41;;;4.51;100.00
69318;BME280;56457;52.190;4.440;2023-02-28T04:50:08;103258.09;;;4.53;100.00
69318;BME280;56457;52.190;4.440;2023-02-28T04:51:09;103261.66;;;4.55;100.00
69318;BME280;56457;52.190;4.440;2023-02-28T04:52:10;103259.88;;;4.54;100.00
69318;BME280;56457;52.190;4.440;2023-02-28T04:53:10;103259.53;;;4.48;100.00
69318;BME280;56457;52.190;4.440;2023-02-28T04:54:10;103258.53;;;4.46;100.00
69318;BME280;56457;52.190;4.440;2023-02-28T04:55:11;103260.34;;;4.47;100.00
69318;BME280;56457;52.190;4.440;2023-02-28T04:56:12;103262.22;;;4.50;100.00
69318;BME280;56457;52.190;4.440;2023-02-28T04:57:13;103262.22;;;4.50;100.00
69318;BME280;56457;52.190;4.440;2023-02-28T04:58:13;103264.00;;;4.51;100.00
69318;BME280;56457;52.190;4.440;2023-02-28T04:59:13;103263.03;;;4.49;100.00
69318;BME280;56457;52.190;4.440;2023-02-28T05:00:14;103264.81;;;4.50;100.00
69318;BME280;56457;52.190;4.440;2023-02-28T05:02:20;103263.91;;;4.49;100.00
69318;BME280;56457;52.190;4.440;2023-02-28T05:03:21;103265.63;;;4.49;100.00
69318;BME280;56457;52.190;4.440;2023-02-28T05:04:22;103258.78;;;4.51;100.00
69318;BME280;56457;52.190;4.440;2023-02-28T05:05:22;103259.59;;;4.50;100.00
69318;BME280;56457;52.190;4.440;2023-02-28T05:06:24;103267.50;;;4.51;100.00
69318;BME280;56457;52.190;4.440;2023-02-28T05:07:24;103264.97;;;4.53;100.00
69318;BME280;56457;52.190;4.440;2023-02-28T05:08:25;103254.56;;;4.53;100.00
69318;BME280;56457;52.190;4.440;2023-02-28T05:09:25;103266.66;;;4.52;100.00
69318;BME280;56457;52.190;4.440;2023-02-28T05:10:26;103268.31;;;4.50;100.00
69318;BME280;56457;52.190;4.440;2023-02-28T05:11:30;103267.34;;;4.48;100.00
69318;BME280;56457;52.190;4.440;2023-02-28T05:12:34;103261.41;;;4.51;100.00
69318;BME280;56457;52.190;4.440;2023-02-28T05:13:34;103265.63;;;4.49;100.00
69318;BME280;56457;52.190;4.440;2023-02-28T05:14:35;103270.63;;;4.46;100.00
69318;BME280;56457;52.190;4.440;2023-02-28T05:15:36;103270.28;;;4.40;100.00
69318;BME280;56457;52.190;4.440;2023-02-28T05:16:37;103279.59;;;4.51;100.00
69318;BME280;56457;52.190;4.440;2023-02-28T05:17:37;103274.38;;;4.51;100.00
69318;BME280;56457;52.190;4.440;2023-02-28T05:18:37;103275.03;;;4.47;100.00
69318;BME280;56457;52.190;4.440;2023-02-28T05:19:38;103272.34;;;4.45;100.00
69318;BME280;56457;52.190;4.440;2023-02-28T05:20:38;103269.75;;;4.45;100.00
69318;BME280;56457;52.190;4.440;2023-02-28T05:21:41;103273.56;;;4.36;100.00
69318;BME280;56457;52.190;4.440;2023-02-28T05:22:49;103271.84;;;4.36;100.00
69318;BME280;56457;52.190;4.440;2023-02-28T05:23:49;103273.44;;;4.34;100.00
69318;BME280;56457;52.190;4.440;2023-02-28T05:24:49;103266.66;;;4.36;100.00
69318;BME280;56457;52.190;4.440;2023-02-28T05:25:50;103272.53;;;4.33;100.00
69318;BME280;56457;52.190;4.440;2023-02-28T05:26:52;103274.19;;;4.31;100.00
69318;BME280;56457;52.190;4.440;2023-02-28T05:27:53;103269.13;;;4.35;100.00
69318;BME280;56457;52.190;4.440;2023-02-28T05:28:53;103265.00;;;4.38;100.00
69318;BME280;56457;52.190;4.440;2023-02-28T05:29:54;103268.59;;;4.40;100.00
69318;BME280;56457;52.190;4.440;2023-02-28T05:30:54;103265.00;;;4.38;100.00
69318;BME280;56457;52.190;4.440;2023-02-28T05:31:55;103267.53;;;4.37;100.00
69318;BME280;56457;52.190;4.440;2023-02-28T05:32:55;103282.31;;;4.38;100.00
69318;BME280;56457;52.190;4.440;2023-02-28T05:33:55;103274.59;;;4.39;100.00
69318;BME280;56457;52.190;4.440;2023-02-28T05:34:56;103269.81;;;4.47;100.00
69318;BME280;56457;52.190;4.440;2023-02-28T05:35:56;103274.13;;;4.46;100.00
69318;BME280;56457;52.190;4.440;2023-02-28T05:36:56;103276.91;;;4.49;100.00
69318;BME280;56457;52.190;4.440;2023-02-28T05:37:56;103273.56;;;4.52;100.00
69318;BME280;56457;52.190;4.440;2023-02-28T05:38:57;103264.88;;;4.51;100.00
69318;BME280;56457;52.190;4.440;2023-02-28T05:39:57;103270.91;;;4.50;100.00
69318;BME280;56457;52.190;4.440;2023-02-28T05:40:57;103275.03;;;4.47;100.00
69318;BME280;56457;52.190;4.440;2023-02-28T05:41:57;103275.03;;;4.47;100.00
69318;BME280;56457;52.190;4.440;2023-02-28T05:42:58;103265.34;;;4.44;100.00
69318;BME280;56457;52.190;4.440;2023-02-28T05:43:58;103265.28;;;4.43;100.00
69318;BME280;56457;52.190;4.440;2023-02-28T05:44:59;103263.66;;;4.45;100.00
69318;BME280;56457;52.190;4.440;2023-02-28T05:46:01;103270.00;;;4.50;100.00
69318;BME280;56457;52.190;4.440;2023-02-28T05:47:02;103270.75;;;4.47;100.00
69318;BME280;56457;52.190;4.440;2023-02-28T05:48:02;103264.63;;;4.47;100.00
69318;BME280;56457;52.190;4.440;2023-02-28T05:49:03;103260.25;;;4.46;100.00
69318;BME280;56457;52.190;4.440;2023-02-28T05:50:03;103267.88;;;4.43;100.00
69318;BME280;56457;52.190;4.440;2023-02-28T05:51:05;103265.28;;;4.43;100.00
69318;BME280;56457;52.190;4.440;2023-02-28T05:52:05;103266.09;;;4.42;100.00
69318;BME280;56457;52.190;4.440;2023-02-28T05:53:05;103269.59;;;4.42;100.00
69318;BME280;56457;52.190;4.440;2023-02-28T05:54:06;103265.28;;;4.43;100.00
69318;BME280;56457;52.190;4.440;2023-02-28T05:55:06;103271.09;;;4.39;100.00
69318;BME280;56457;52.190;4.440;2023-02-28T05:56:06;103264.19;;;4.39;100.00
69318;BME280;56457;52.190;4.440;2023-02-28T05:57:07;103262.50;;;4.40;100.00
69318;BME280;56457;52.190;4.440;2023-02-28T05:58:07;103270.13;;;4.37;100.00
69318;BME280;56457;52.190;4.440;2023-02-28T05:59:07;103266.72;;;4.38;100.00
69318;BME280;56457;52.190;4.440;2023-02-28T06:00:08;103267.69;;;4.40;100.00
69318;BME280;56457;52.190;4.440;2023-02-28T06:02:21;103264.94;;;4.37;100.00
69318;BME280;56457;52.190;4.440;2023-02-28T06:03:21;103265.41;;;4.29;100.00
69318;BME280;56457;52.190;4.440;2023-02-28T06:04:21;103268.00;;;4.29;100.00
69318;BME280;56457;52.190;4.440;2023-02-28T06:05:21;103268.78;;;4.28;100.00
69318;BME280;56457;52.190;4.440;2023-02-28T06:06:22;103272.66;;;4.20;100.00